createdAt,value
2019-01-08T00:01:38.299Z,8.75
2019-01-08T00:04:07.799Z,8.69
2019-01-08T00:06:37.315Z,8.70
2019-01-08T00:09:07.129Z,8.74
2019-01-08T00:11:36.663Z,8.66
2019-01-08T00:14:06.220Z,8.76
2019-01-08T00:16:35.761Z,8.76
2019-01-08T00:19:05.309Z,8.73
2019-01-08T00:21:34.856Z,8.70
2019-01-08T00:24:04.430Z,8.70
2019-01-08T00:26:33.956Z,8.66
2019-01-08T00:29:03.508Z,8.64
2019-01-08T00:31:33.065Z,8.51
2019-01-08T00:34:02.585Z,8.33
2019-01-08T00:36:32.131Z,7.96
2019-01-08T00:39:01.659Z,7.90
2019-01-08T00:41:31.246Z,7.95
2019-01-08T00:44:00.776Z,7.91
2019-01-08T00:46:30.295Z,7.93
2019-01-08T00:48:59.829Z,7.92
2019-01-08T00:51:29.374Z,7.89
2019-01-08T00:53:58.928Z,7.83
2019-01-08T00:56:28.466Z,7.80
2019-01-08T00:58:58.011Z,7.79
2019-01-08T01:01:27.553Z,7.74
2019-01-08T01:03:57.090Z,7.69
2019-01-08T01:06:26.632Z,7.76
2019-01-08T01:08:56.163Z,7.66
2019-01-08T01:11:25.722Z,7.66
2019-01-08T01:13:55.249Z,7.65
2019-01-08T01:16:24.804Z,7.65
2019-01-08T01:18:54.364Z,7.57
2019-01-08T01:21:23.896Z,7.60
2019-01-08T01:23:53.418Z,7.60
2019-01-08T01:26:23.249Z,7.54
2019-01-08T01:29:00.040Z,7.59
2019-01-08T01:31:24.058Z,7.56
2019-01-08T01:33:53.970Z,7.59
2019-01-08T01:36:23.764Z,7.47
2019-01-08T01:38:53.309Z,7.39
2019-01-08T01:41:22.851Z,7.37
2019-01-08T01:43:52.658Z,7.44
2019-01-08T01:46:22.194Z,7.51
2019-01-08T01:48:51.747Z,7.57
2019-01-08T01:51:21.313Z,7.48
2019-01-08T01:53:50.848Z,7.53
2019-01-08T01:56:20.383Z,7.55
2019-01-08T01:58:49.921Z,7.56
2019-01-08T02:01:21.008Z,7.51
2019-01-08T02:03:50.554Z,7.48
2019-01-08T02:06:20.095Z,7.50
2019-01-08T02:08:49.642Z,7.53
2019-01-08T02:11:19.167Z,7.56
2019-01-08T02:13:48.704Z,7.56
2019-01-08T02:16:18.276Z,7.48
2019-01-08T02:18:47.808Z,7.50
2019-01-08T02:21:17.765Z,7.57
2019-01-08T02:23:47.379Z,7.58
2019-01-08T02:26:16.931Z,7.52
2019-01-08T02:28:46.477Z,7.57
2019-01-08T02:31:16.031Z,7.54
2019-01-08T02:33:45.619Z,7.56
2019-01-08T02:36:15.415Z,7.64
2019-01-08T02:38:44.951Z,7.59
2019-01-08T02:41:14.708Z,7.53
2019-01-08T02:43:44.244Z,7.56
2019-01-08T02:46:13.853Z,7.49
2019-01-08T02:48:43.500Z,7.46
2019-01-08T02:51:13.034Z,7.51
2019-01-08T02:53:42.572Z,7.47
2019-01-08T02:56:12.132Z,7.46
2019-01-08T02:58:41.665Z,7.44
2019-01-08T03:03:47.464Z,7.47
2019-01-08T03:06:16.999Z,7.46
2019-01-08T03:08:46.542Z,7.49
2019-01-08T03:11:16.130Z,7.49
2019-01-08T03:13:45.716Z,7.51
2019-01-08T03:16:15.263Z,7.55
2019-01-08T03:18:44.835Z,7.48
2019-01-08T03:21:14.383Z,7.50
2019-01-08T03:23:43.902Z,7.51
2019-01-08T03:26:13.447Z,7.48
2019-01-08T03:28:42.985Z,7.45
2019-01-08T03:31:12.543Z,7.45
2019-01-08T03:33:42.073Z,7.47
2019-01-08T03:36:11.618Z,7.42
2019-01-08T03:38:41.188Z,7.38
2019-01-08T03:41:10.722Z,7.33
2019-01-08T03:43:40.267Z,7.29
2019-01-08T03:46:09.832Z,7.24
2019-01-08T03:48:39.369Z,7.24
2019-01-08T03:51:08.893Z,7.25
2019-01-08T03:53:38.454Z,7.26
2019-01-08T03:56:07.995Z,7.22
2019-01-08T03:58:37.790Z,7.22
2019-01-08T04:01:07.350Z,7.19
2019-01-08T04:03:36.893Z,7.06
2019-01-08T04:06:06.413Z,7.19
2019-01-08T04:08:35.961Z,7.24
2019-01-08T04:11:05.494Z,7.12
2019-01-08T04:13:35.309Z,7.09
2019-01-08T04:16:04.880Z,7.13
2019-01-08T04:18:34.407Z,7.09
2019-01-08T04:21:03.947Z,7.13
2019-01-08T04:23:33.500Z,7.16
2019-01-08T04:26:03.029Z,7.10
2019-01-08T04:28:32.593Z,7.12
2019-01-08T04:31:02.134Z,7.13
2019-01-08T04:33:31.674Z,7.13
2019-01-08T04:36:01.225Z,7.22
2019-01-08T04:38:30.793Z,7.20
2019-01-08T04:41:00.335Z,7.15
2019-01-08T04:43:29.859Z,7.13
2019-01-08T04:45:59.430Z,7.17
2019-01-08T04:48:29.013Z,7.13
2019-01-08T04:50:58.558Z,7.11
2019-01-08T04:53:28.109Z,7.21
2019-01-08T04:55:57.638Z,7.22
2019-01-08T04:58:27.185Z,7.18
2019-01-08T05:00:56.764Z,7.25
2019-01-08T05:03:26.347Z,7.21
2019-01-08T05:05:55.850Z,7.20
2019-01-08T05:08:25.396Z,7.25
2019-01-08T05:10:54.952Z,7.20
2019-01-08T05:13:24.482Z,7.22
2019-01-08T05:15:54.008Z,7.18
2019-01-08T05:18:23.573Z,7.19
2019-01-08T05:20:53.131Z,7.16
2019-01-08T05:23:22.651Z,7.09
2019-01-08T05:25:52.207Z,7.06
2019-01-08T05:28:21.749Z,7.04
2019-01-08T05:30:51.303Z,6.96
2019-01-08T05:33:22.370Z,6.91
2019-01-08T05:35:51.912Z,6.90
2019-01-08T05:38:21.471Z,6.92
2019-01-08T05:40:51.004Z,6.75
2019-01-08T05:43:20.543Z,6.64
2019-01-08T05:45:50.258Z,6.51
2019-01-08T05:48:19.810Z,6.51
2019-01-08T05:50:50.968Z,6.43
2019-01-08T05:53:22.112Z,6.41
2019-01-08T05:55:51.657Z,6.30
2019-01-08T05:58:21.182Z,6.13
2019-01-08T06:00:50.736Z,6.11
2019-01-08T06:03:20.279Z,6.16
2019-01-08T06:05:49.875Z,6.17
2019-01-08T06:08:19.413Z,6.20
2019-01-08T06:10:48.977Z,6.26
2019-01-08T06:13:18.521Z,6.34
2019-01-08T06:15:48.073Z,6.38
2019-01-08T06:18:17.850Z,6.39
2019-01-08T06:20:47.477Z,6.40
2019-01-08T06:23:17.025Z,6.42
2019-01-08T06:25:46.573Z,6.47
2019-01-08T06:28:16.116Z,6.49
2019-01-08T06:30:45.902Z,6.44
2019-01-08T06:33:15.450Z,6.52
2019-01-08T06:35:45.005Z,6.52
2019-01-08T06:38:15.416Z,6.52
2019-01-08T06:40:45.073Z,6.46
2019-01-08T06:43:14.669Z,6.52
2019-01-08T06:45:44.162Z,6.47
2019-01-08T06:48:13.707Z,6.47
2019-01-08T06:50:43.251Z,6.60
2019-01-08T06:53:12.816Z,6.60
2019-01-08T06:55:42.367Z,6.60
2019-01-08T06:58:11.901Z,6.61
2019-01-08T07:00:41.440Z,6.59
2019-01-08T07:03:10.972Z,6.68
2019-01-08T07:05:40.499Z,6.68
2019-01-08T07:08:10.272Z,6.75
2019-01-08T07:10:39.863Z,6.78
2019-01-08T07:13:09.402Z,6.72
2019-01-08T07:15:38.927Z,6.77
2019-01-08T07:18:08.467Z,6.73
2019-01-08T07:20:38.005Z,6.67
2019-01-08T07:23:07.531Z,6.70
2019-01-08T07:25:42.100Z,6.75
2019-01-08T07:28:08.335Z,6.72
2019-01-08T07:30:41.614Z,6.72
2019-01-08T07:33:09.207Z,6.75
2019-01-08T07:35:38.782Z,6.71
2019-01-08T07:38:08.314Z,6.66
2019-01-08T07:40:37.848Z,6.72
2019-01-08T07:43:07.407Z,6.63
2019-01-08T07:45:36.941Z,6.57
2019-01-08T07:48:06.828Z,6.63
2019-01-08T07:50:36.413Z,6.64
2019-01-08T07:53:05.941Z,6.67
2019-01-08T07:55:35.501Z,6.68
2019-01-08T07:58:05.017Z,6.67
2019-01-08T08:00:34.562Z,6.66
2019-01-08T08:03:04.124Z,6.69
2019-01-08T08:05:33.669Z,6.72
2019-01-08T08:08:03.211Z,6.63
2019-01-08T08:10:32.758Z,6.73
2019-01-08T08:13:02.280Z,6.81
2019-01-08T08:15:31.819Z,6.78
2019-01-08T08:18:01.360Z,6.74
2019-01-08T08:20:30.886Z,6.71
2019-01-08T08:23:00.416Z,6.73
2019-01-08T08:25:49.283Z,6.79
2019-01-08T08:28:18.847Z,6.80
2019-01-08T08:30:48.705Z,6.74
2019-01-08T08:33:18.219Z,6.83
2019-01-08T08:35:47.784Z,6.84
2019-01-08T08:38:17.628Z,6.77
2019-01-08T08:40:47.432Z,6.77
2019-01-08T08:43:16.971Z,6.81
2019-01-08T08:45:46.502Z,6.76
2019-01-08T08:48:16.050Z,6.74
2019-01-08T08:50:45.598Z,6.74
2019-01-08T08:53:15.138Z,6.73
2019-01-08T08:55:44.683Z,6.74
2019-01-08T08:58:14.233Z,6.76
2019-01-08T09:00:43.768Z,6.73
2019-01-08T09:03:13.321Z,6.74
2019-01-08T09:05:42.980Z,6.70
2019-01-08T09:08:12.532Z,6.72
2019-01-08T09:10:42.061Z,6.63
2019-01-08T09:13:11.596Z,6.66
2019-01-08T09:15:41.147Z,6.68
2019-01-08T09:18:10.948Z,6.62
2019-01-08T09:20:40.492Z,6.52
2019-01-08T09:23:10.270Z,6.54
2019-01-08T09:25:39.828Z,6.56
2019-01-08T09:28:09.504Z,6.58
2019-01-08T09:30:38.980Z,6.60
2019-01-08T09:33:08.522Z,6.51
2019-01-08T09:35:38.069Z,6.45
2019-01-08T09:38:07.600Z,6.45
2019-01-08T09:40:37.153Z,6.52
2019-01-08T09:43:06.717Z,6.37
2019-01-08T09:45:36.263Z,6.44
2019-01-08T09:48:05.848Z,6.44
2019-01-08T09:50:35.363Z,6.40
2019-01-08T09:53:04.895Z,6.36
2019-01-08T09:55:34.462Z,6.40
2019-01-08T09:58:04.003Z,6.48
2019-01-08T10:00:33.556Z,6.39
2019-01-08T10:03:03.095Z,6.39
2019-01-08T10:05:32.822Z,6.44
2019-01-08T10:08:02.316Z,6.47
2019-01-08T10:10:31.881Z,6.44
2019-01-08T10:13:01.409Z,6.38
2019-01-08T10:15:30.944Z,6.34
2019-01-08T10:18:00.487Z,6.39
2019-01-08T10:20:30.040Z,6.39
2019-01-08T10:22:59.580Z,6.37
2019-01-08T10:25:29.129Z,6.43
2019-01-08T10:27:58.664Z,6.47
2019-01-08T10:30:28.235Z,6.52
2019-01-08T10:32:57.764Z,6.52
2019-01-08T10:35:27.315Z,6.60
2019-01-08T10:37:56.879Z,6.58
2019-01-08T10:40:26.417Z,6.64
2019-01-08T10:42:55.958Z,6.69
2019-01-08T10:45:28.570Z,6.68
2019-01-08T10:47:58.101Z,6.67
2019-01-08T10:50:27.647Z,6.69
2019-01-08T10:52:57.191Z,6.81
2019-01-08T10:55:26.753Z,6.81
2019-01-08T10:57:56.282Z,6.86
2019-01-08T11:00:25.825Z,6.93
2019-01-08T11:02:55.456Z,6.95
2019-01-08T11:05:26.517Z,6.95
2019-01-08T11:07:56.046Z,6.98
2019-01-08T11:10:25.604Z,7.02
2019-01-08T11:12:55.146Z,6.97
2019-01-08T11:15:24.714Z,7.02
2019-01-08T11:17:54.325Z,7.04
2019-01-08T11:20:27.943Z,7.09
2019-01-08T11:22:57.491Z,7.06
2019-01-08T11:25:27.071Z,7.05
2019-01-08T11:27:56.647Z,7.06
2019-01-08T11:30:26.477Z,7.09
2019-01-08T11:32:56.098Z,7.07
2019-01-08T11:35:25.666Z,6.99
2019-01-08T11:37:55.212Z,6.94
2019-01-08T11:40:24.782Z,6.94
2019-01-08T11:42:54.303Z,6.93
2019-01-08T11:45:26.906Z,6.96
2019-01-08T11:48:03.768Z,6.85
2019-01-08T11:50:27.734Z,6.92
2019-01-08T11:52:57.297Z,6.99
2019-01-08T11:55:26.836Z,6.95
2019-01-08T11:57:56.377Z,7.00
2019-01-08T12:00:25.956Z,7.05
2019-01-08T12:02:55.516Z,7.01
2019-01-08T12:05:26.162Z,7.08
2019-01-08T12:07:55.696Z,6.99
2019-01-08T12:10:25.277Z,7.04
2019-01-08T12:12:54.782Z,7.08
2019-01-08T12:15:24.345Z,7.09
2019-01-08T12:17:53.880Z,7.08
2019-01-08T12:20:23.430Z,7.04
2019-01-08T12:22:52.965Z,7.12
2019-01-08T12:25:22.659Z,7.02
2019-01-08T12:27:52.197Z,6.94
2019-01-08T12:30:21.720Z,6.93
2019-01-08T12:32:51.261Z,6.92
2019-01-08T12:35:21.033Z,6.84
2019-01-08T12:37:50.571Z,6.85
2019-01-08T12:40:20.101Z,6.85
2019-01-08T12:42:49.660Z,6.84
2019-01-08T12:45:19.187Z,6.90
2019-01-08T12:47:48.734Z,6.87
2019-01-08T12:50:18.282Z,6.74
2019-01-08T12:52:47.847Z,6.69
2019-01-08T12:55:17.412Z,6.71
2019-01-08T12:57:46.940Z,6.76
2019-01-08T13:00:16.474Z,6.70
2019-01-08T13:02:46.281Z,6.72
2019-01-08T13:05:15.894Z,6.78
2019-01-08T13:07:45.436Z,6.80
2019-01-08T13:10:14.991Z,6.77
2019-01-08T13:12:47.200Z,6.80
2019-01-08T13:15:16.745Z,6.83
2019-01-08T13:17:46.275Z,6.93
2019-01-08T13:20:15.846Z,6.91
2019-01-08T13:22:45.366Z,7.05
2019-01-08T13:25:14.930Z,7.08
2019-01-08T13:27:44.455Z,7.07
2019-01-08T13:30:13.977Z,7.21
2019-01-08T13:32:45.151Z,7.21
2019-01-08T13:35:15.765Z,7.23
2019-01-08T13:37:45.423Z,7.19
2019-01-08T13:40:14.945Z,7.12
2019-01-08T13:45:36.118Z,7.01
2019-01-08T13:48:25.003Z,6.83
2019-01-08T13:51:12.013Z,6.83
2019-01-08T13:57:46.428Z,6.71
2019-01-08T14:00:35.586Z,6.73
2019-01-08T14:06:14.047Z,6.65
2019-01-08T14:09:21.255Z,6.70
2019-01-08T14:12:10.217Z,6.66
2019-01-08T14:18:03.231Z,6.76
2019-01-08T14:20:44.666Z,6.81
2019-01-08T14:41:55.822Z,6.78
2019-01-08T14:44:44.760Z,6.80
2019-01-08T14:58:53.319Z,6.15
2019-01-08T15:01:35.042Z,6.12
2019-01-08T15:04:22.945Z,6.16
2019-01-08T15:11:10.361Z,6.26
2019-01-08T15:22:18.088Z,6.29
2019-01-08T15:26:00.586Z,6.29
2019-01-08T16:07:40.066Z,6.22
2019-01-08T16:25:37.717Z,6.53
2019-01-08T16:28:46.839Z,6.51
2019-01-08T16:38:15.316Z,6.52
2019-01-08T16:41:58.414Z,6.52
2019-01-08T16:48:35.665Z,6.42
2019-01-08T16:55:23.445Z,6.31
2019-01-08T17:01:35.386Z,6.23
2019-01-08T17:04:43.272Z,6.13
2019-01-08T17:10:55.934Z,5.98
2019-01-08T17:13:44.367Z,5.96
2019-01-08T17:16:32.984Z,5.99
2019-01-08T17:19:15.282Z,5.98
2019-01-08T17:29:56.097Z,5.95
2019-01-08T17:40:20.157Z,6.07
2019-01-08T17:47:44.294Z,6.01
2019-01-08T17:54:20.068Z,5.93
2019-01-08T18:04:09.407Z,5.88
2019-01-08T18:12:48.426Z,5.74
2019-01-08T18:15:37.317Z,5.68
2019-01-08T18:18:25.928Z,5.59
2019-01-08T18:21:32.547Z,5.55
2019-01-08T18:28:20.428Z,5.67
2019-01-08T18:34:12.058Z,5.64
2019-01-08T18:37:00.957Z,5.63
2019-01-08T18:42:48.193Z,5.53
2019-01-08T18:45:55.201Z,5.49
2019-01-08T18:49:02.249Z,5.49
2019-01-08T18:59:30.130Z,5.27
2019-01-08T19:24:30.458Z,5.47
2019-01-08T19:27:55.521Z,5.46
2019-01-08T19:31:21.562Z,5.49
2019-01-08T19:41:46.129Z,5.43
2019-01-08T20:02:58.349Z,5.57
2019-01-08T20:14:37.048Z,5.70
2019-01-08T20:18:24.125Z,5.69
2019-01-08T20:27:56.037Z,5.68
2019-01-08T20:34:48.562Z,5.69
2019-01-08T20:37:55.194Z,5.72
2019-01-08T20:47:56.452Z,5.70
2019-01-08T20:51:04.272Z,5.75
2019-01-08T21:04:13.853Z,5.76
2019-01-08T21:07:01.722Z,5.73
2019-01-08T21:20:18.455Z,5.75
2019-01-08T21:27:48.806Z,5.64
2019-01-08T21:34:09.797Z,5.30
2019-01-08T21:41:03.940Z,5.27
2019-01-08T21:44:10.648Z,5.34
2019-01-08T21:50:31.478Z,5.36
2019-01-08T21:53:20.360Z,5.29
2019-01-08T21:55:49.911Z,5.47
2019-01-08T21:58:19.440Z,5.47
2019-01-08T22:00:49.011Z,5.46
2019-01-08T22:03:18.537Z,5.48
2019-01-08T22:05:48.085Z,5.49
2019-01-08T22:08:17.644Z,5.47
2019-01-08T22:10:48.760Z,5.48
2019-01-08T22:13:18.885Z,5.48
2019-01-08T22:15:48.542Z,5.51
2019-01-08T22:18:20.240Z,5.47
2019-01-08T22:20:49.790Z,5.53
2019-01-08T22:23:19.341Z,5.54
2019-01-08T22:25:48.877Z,5.55
2019-01-08T22:28:18.773Z,5.58
2019-01-08T22:30:48.323Z,5.56
2019-01-08T22:33:17.866Z,5.53
2019-01-08T22:35:47.567Z,5.60
2019-01-08T22:38:17.130Z,5.59
2019-01-08T22:40:46.917Z,5.59
2019-01-08T22:43:17.764Z,5.57
2019-01-08T22:45:47.385Z,5.47
2019-01-08T22:48:16.936Z,5.48
2019-01-08T22:50:46.813Z,5.47
2019-01-08T22:53:17.892Z,5.47
2019-01-08T22:55:47.444Z,5.44
2019-01-08T22:58:20.282Z,5.37
2019-01-08T23:01:01.393Z,5.38
2019-01-08T23:03:30.949Z,5.36
2019-01-08T23:06:00.495Z,5.34
2019-01-08T23:08:30.037Z,5.29
2019-01-08T23:10:59.599Z,5.24
2019-01-08T23:13:29.448Z,5.24
2019-01-08T23:15:58.954Z,5.26
2019-01-08T23:18:28.492Z,5.22
2019-01-08T23:20:58.030Z,5.30
2019-01-08T23:23:27.564Z,5.29
2019-01-08T23:25:57.105Z,5.25
2019-01-08T23:28:26.644Z,5.27
2019-01-08T23:30:56.177Z,5.30
2019-01-08T23:33:25.734Z,5.29
2019-01-08T23:35:55.264Z,5.26
2019-01-08T23:38:24.786Z,5.25
2019-01-08T23:40:54.387Z,5.25
2019-01-08T23:43:24.002Z,5.26
2019-01-08T23:45:53.549Z,5.25
2019-01-08T23:48:23.128Z,5.14
2019-01-08T23:50:52.901Z,5.16
2019-01-08T23:53:33.070Z,5.22
2019-01-08T23:56:04.399Z,5.26
2019-01-08T23:58:33.933Z,5.14
